sensor_id;sensor_type;location;lat;lon;timestamp;P1;durP1;ratioP1;P2;durP2;ratioP2
54452;SDS011;40363;52.270;10.546;2023-02-11T00:00:18;33.35;;;15.95;;
54452;SDS011;40363;52.270;10.546;2023-02-11T00:02:44;35.88;;;16.48;;
54452;SDS011;40363;52.270;10.546;2023-02-11T00:05:12;35.05;;;16.73;;
54452;SDS011;40363;52.270;10.546;2023-02-11T00:07:39;33.55;;;17.05;;
54452;SDS011;40363;52.270;10.546;2023-02-11T00:10:06;35.17;;;17.20;;
54452;SDS011;40363;52.270;10.546;2023-02-11T00:12:33;44.05;;;19.52;;
54452;SDS011;40363;52.270;10.546;2023-02-11T00:15:00;35.63;;;17.42;;
54452;SDS011;40363;52.270;10.546;2023-02-11T00:17:27;36.40;;;17.30;;
54452;SDS011;40363;52.270;10.546;2023-02-11T00:19:54;39.67;;;19.15;;
54452;SDS011;40363;52.270;10.546;2023-02-11T00:22:22;40.20;;;18.63;;
54452;SDS011;40363;52.270;10.546;2023-02-11T00:24:48;38.53;;;17.70;;
54452;SDS011;40363;52.270;10.546;2023-02-11T00:27:15;41.13;;;19.23;;
54452;SDS011;40363;52.270;10.546;2023-02-11T00:29:42;43.75;;;19.92;;
54452;SDS011;40363;52.270;10.546;2023-02-11T00:32:08;45.70;;;19.20;;
54452;SDS011;40363;52.270;10.546;2023-02-11T00:34:35;40.17;;;19.17;;
54452;SDS011;40363;52.270;10.546;2023-02-11T00:37:02;50.17;;;21.65;;
54452;SDS011;40363;52.270;10.546;2023-02-11T00:39:33;45.85;;;21.05;;
54452;SDS011;40363;52.270;10.546;2023-02-11T00:41:59;53.60;;;22.35;;
54452;SDS011;40363;52.270;10.546;2023-02-11T00:44:26;56.72;;;22.05;;
54452;SDS011;40363;52.270;10.546;2023-02-11T00:46:52;49.00;;;19.90;;
54452;SDS011;40363;52.270;10.546;2023-02-11T00:49:20;50.17;;;19.40;;
54452;SDS011;40363;52.270;10.546;2023-02-11T00:51:46;54.45;;;22.77;;
54452;SDS011;40363;52.270;10.546;2023-02-11T00:54:13;52.40;;;23.27;;
54452;SDS011;40363;52.270;10.546;2023-02-11T00:56:41;55.22;;;21.73;;
54452;SDS011;40363;52.270;10.546;2023-02-11T00:59:08;51.45;;;21.73;;
54452;SDS011;40363;52.270;10.546;2023-02-11T01:01:34;48.33;;;22.77;;
54452;SDS011;40363;52.270;10.546;2023-02-11T01:04:01;53.00;;;23.65;;
54452;SDS011;40363;52.270;10.546;2023-02-11T01:06:27;55.13;;;23.17;;
54452;SDS011;40363;52.270;10.546;2023-02-11T01:08:54;44.08;;;21.30;;
54452;SDS011;40363;52.270;10.546;2023-02-11T01:11:22;55.17;;;22.70;;
54452;SDS011;40363;52.270;10.546;2023-02-11T01:13:50;49.22;;;21.25;;
54452;SDS011;40363;52.270;10.546;2023-02-11T01:16:17;56.35;;;24.20;;
54452;SDS011;40363;52.270;10.546;2023-02-11T01:18:45;54.47;;;23.35;;
54452;SDS011;40363;52.270;10.546;2023-02-11T01:21:12;53.03;;;23.15;;
54452;SDS011;40363;52.270;10.546;2023-02-11T01:23:40;50.13;;;21.67;;
54452;SDS011;40363;52.270;10.546;2023-02-11T01:26:06;53.83;;;21.45;;
54452;SDS011;40363;52.270;10.546;2023-02-11T01:28:33;58.60;;;23.42;;
54452;SDS011;40363;52.270;10.546;2023-02-11T01:31:01;49.63;;;22.08;;
54452;SDS011;40363;52.270;10.546;2023-02-11T01:33:29;53.85;;;21.90;;
54452;SDS011;40363;52.270;10.546;2023-02-11T01:35:58;53.42;;;24.83;;
54452;SDS011;40363;52.270;10.546;2023-02-11T01:38:26;51.47;;;22.60;;
54452;SDS011;40363;52.270;10.546;2023-02-11T01:40:53;58.63;;;23.67;;
54452;SDS011;40363;52.270;10.546;2023-02-11T01:43:21;59.38;;;23.73;;
54452;SDS011;40363;52.270;10.546;2023-02-11T01:45:55;48.85;;;21.40;;
54452;SDS011;40363;52.270;10.546;2023-02-11T01:48:30;51.35;;;23.30;;
54452;SDS011;40363;52.270;10.546;2023-02-11T01:51:02;53.58;;;23.17;;
54452;SDS011;40363;52.270;10.546;2023-02-11T01:53:32;57.42;;;24.52;;
54452;SDS011;40363;52.270;10.546;2023-02-11T01:56:18;53.45;;;23.95;;
54452;SDS011;40363;52.270;10.546;2023-02-11T01:59:05;58.88;;;23.90;;
54452;SDS011;40363;52.270;10.546;2023-02-11T02:01:38;44.45;;;21.05;;
54452;SDS011;40363;52.270;10.546;2023-02-11T02:04:08;55.45;;;21.23;;
54452;SDS011;40363;52.270;10.546;2023-02-11T02:06:36;48.33;;;24.08;;
54452;SDS011;40363;52.270;10.546;2023-02-11T02:09:10;54.92;;;23.40;;
54452;SDS011;40363;52.270;10.546;2023-02-11T02:11:42;51.38;;;23.83;;
54452;SDS011;40363;52.270;10.546;2023-02-11T02:14:08;53.92;;;20.98;;
54452;SDS011;40363;52.270;10.546;2023-02-11T02:16:35;54.42;;;21.75;;
54452;SDS011;40363;52.270;10.546;2023-02-11T02:19:13;53.63;;;21.98;;
54452;SDS011;40363;52.270;10.546;2023-02-11T02:22:21;49.40;;;23.02;;
54452;SDS011;40363;52.270;10.546;2023-02-11T02:28:18;53.38;;;22.52;;
54452;SDS011;40363;52.270;10.546;2023-02-11T02:31:09;52.92;;;24.20;;
54452;SDS011;40363;52.270;10.546;2023-02-11T02:33:50;54.67;;;22.63;;
54452;SDS011;40363;52.270;10.546;2023-02-11T02:36:21;48.95;;;21.67;;
54452;SDS011;40363;52.270;10.546;2023-02-11T02:38:54;47.70;;;22.80;;
54452;SDS011;40363;52.270;10.546;2023-02-11T02:41:29;50.30;;;24.00;;
54452;SDS011;40363;52.270;10.546;2023-02-11T02:43:58;50.28;;;23.48;;
54452;SDS011;40363;52.270;10.546;2023-02-11T02:46:27;55.10;;;23.25;;
54452;SDS011;40363;52.270;10.546;2023-02-11T02:48:58;51.47;;;22.90;;
54452;SDS011;40363;52.270;10.546;2023-02-11T02:54:33;50.83;;;22.73;;
54452;SDS011;40363;52.270;10.546;2023-02-11T02:57:14;54.58;;;21.75;;
54452;SDS011;40363;52.270;10.546;2023-02-11T02:59:56;54.25;;;22.92;;
54452;SDS011;40363;52.270;10.546;2023-02-11T03:02:40;50.80;;;22.65;;
54452;SDS011;40363;52.270;10.546;2023-02-11T03:05:16;55.65;;;25.40;;
54452;SDS011;40363;52.270;10.546;2023-02-11T03:07:47;53.67;;;22.77;;
54452;SDS011;40363;52.270;10.546;2023-02-11T03:10:20;53.10;;;23.15;;
54452;SDS011;40363;52.270;10.546;2023-02-11T03:12:52;55.72;;;25.67;;
54452;SDS011;40363;52.270;10.546;2023-02-11T03:15:20;51.80;;;23.90;;
54452;SDS011;40363;52.270;10.546;2023-02-11T03:17:50;57.38;;;23.35;;
54452;SDS011;40363;52.270;10.546;2023-02-11T03:20:21;51.30;;;24.27;;
54452;SDS011;40363;52.270;10.546;2023-02-11T03:22:49;57.25;;;25.38;;
54452;SDS011;40363;52.270;10.546;2023-02-11T03:25:20;57.15;;;24.77;;
54452;SDS011;40363;52.270;10.546;2023-02-11T03:27:51;54.83;;;22.77;;
54452;SDS011;40363;52.270;10.546;2023-02-11T03:30:24;54.22;;;24.60;;
54452;SDS011;40363;52.270;10.546;2023-02-11T03:32:54;60.55;;;24.10;;
54452;SDS011;40363;52.270;10.546;2023-02-11T03:35:27;54.85;;;24.00;;
54452;SDS011;40363;52.270;10.546;2023-02-11T03:38:01;51.88;;;24.10;;
54452;SDS011;40363;52.270;10.546;2023-02-11T03:40:34;56.83;;;24.80;;
54452;SDS011;40363;52.270;10.546;2023-02-11T03:43:04;52.58;;;24.65;;
54452;SDS011;40363;52.270;10.546;2023-02-11T03:45:35;54.40;;;24.65;;
54452;SDS011;40363;52.270;10.546;2023-02-11T03:48:04;61.42;;;24.65;;
54452;SDS011;40363;52.270;10.546;2023-02-11T03:50:36;57.85;;;24.73;;
54452;SDS011;40363;52.270;10.546;2023-02-11T03:53:05;58.90;;;26.25;;
54452;SDS011;40363;52.270;10.546;2023-02-11T03:55:33;57.10;;;23.65;;
54452;SDS011;40363;52.270;10.546;2023-02-11T03:58:03;55.15;;;24.13;;
54452;SDS011;40363;52.270;10.546;2023-02-11T04:00:30;55.80;;;24.08;;
54452;SDS011;40363;52.270;10.546;2023-02-11T04:02:58;54.47;;;23.05;;
54452;SDS011;40363;52.270;10.546;2023-02-11T04:05:25;49.47;;;22.50;;
54452;SDS011;40363;52.270;10.546;2023-02-11T04:07:53;50.33;;;22.80;;
54452;SDS011;40363;52.270;10.546;2023-02-11T04:10:20;52.97;;;23.40;;
54452;SDS011;40363;52.270;10.546;2023-02-11T04:12:46;48.40;;;22.88;;
54452;SDS011;40363;52.270;10.546;2023-02-11T04:15:13;46.97;;;22.98;;
54452;SDS011;40363;52.270;10.546;2023-02-11T04:17:40;52.22;;;23.60;;
54452;SDS011;40363;52.270;10.546;2023-02-11T04:20:08;51.30;;;24.05;;
54452;SDS011;40363;52.270;10.546;2023-02-11T04:22:36;52.63;;;23.33;;
54452;SDS011;40363;52.270;10.546;2023-02-11T04:25:07;57.15;;;25.88;;
54452;SDS011;40363;52.270;10.546;2023-02-11T04:27:35;55.40;;;23.65;;
54452;SDS011;40363;52.270;10.546;2023-02-11T04:30:02;54.78;;;24.50;;
54452;SDS011;40363;52.270;10.546;2023-02-11T04:32:31;50.25;;;21.85;;
54452;SDS011;40363;52.270;10.546;2023-02-11T04:34:58;55.65;;;24.00;;
54452;SDS011;40363;52.270;10.546;2023-02-11T04:37:25;45.95;;;23.05;;
54452;SDS011;40363;52.270;10.546;2023-02-11T04:39:51;57.38;;;25.27;;
54452;SDS011;40363;52.270;10.546;2023-02-11T04:42:19;51.75;;;21.27;;
54452;SDS011;40363;52.270;10.546;2023-02-11T04:44:46;65.25;;;25.17;;
54452;SDS011;40363;52.270;10.546;2023-02-11T04:47:13;60.65;;;23.73;;
54452;SDS011;40363;52.270;10.546;2023-02-11T04:49:39;49.70;;;23.40;;
54452;SDS011;40363;52.270;10.546;2023-02-11T04:52:07;59.58;;;26.20;;
54452;SDS011;40363;52.270;10.546;2023-02-11T04:54:34;53.58;;;24.52;;
54452;SDS011;40363;52.270;10.546;2023-02-11T04:57:01;51.60;;;23.50;;
54452;SDS011;40363;52.270;10.546;2023-02-11T04:59:29;53.00;;;23.80;;
54452;SDS011;40363;52.270;10.546;2023-02-11T05:01:56;58.67;;;24.02;;
54452;SDS011;40363;52.270;10.546;2023-02-11T05:04:23;50.92;;;23.67;;
54452;SDS011;40363;52.270;10.546;2023-02-11T05:06:49;55.10;;;22.55;;
54452;SDS011;40363;52.270;10.546;2023-02-11T05:09:16;57.30;;;24.40;;
54452;SDS011;40363;52.270;10.546;2023-02-11T05:11:43;55.05;;;22.67;;
54452;SDS011;40363;52.270;10.546;2023-02-11T05:14:13;55.40;;;23.77;;
54452;SDS011;40363;52.270;10.546;2023-02-11T05:16:41;56.47;;;24.58;;
54452;SDS011;40363;52.270;10.546;2023-02-11T05:19:08;53.80;;;24.80;;
54452;SDS011;40363;52.270;10.546;2023-02-11T05:21:35;53.05;;;23.30;;
54452;SDS011;40363;52.270;10.546;2023-02-11T05:24:01;60.33;;;22.60;;
54452;SDS011;40363;52.270;10.546;2023-02-11T05:26:29;51.35;;;24.00;;
54452;SDS011;40363;52.270;10.546;2023-02-11T05:28:56;62.60;;;24.45;;
54452;SDS011;40363;52.270;10.546;2023-02-11T05:31:23;58.15;;;25.65;;
54452;SDS011;40363;52.270;10.546;2023-02-11T05:33:54;50.40;;;23.15;;
54452;SDS011;40363;52.270;10.546;2023-02-11T05:36:20;56.60;;;24.65;;
54452;SDS011;40363;52.270;10.546;2023-02-11T05:38:47;52.45;;;22.83;;
54452;SDS011;40363;52.270;10.546;2023-02-11T05:41:15;54.78;;;24.17;;
54452;SDS011;40363;52.270;10.546;2023-02-11T05:43:42;48.00;;;23.45;;
54452;SDS011;40363;52.270;10.546;2023-02-11T05:46:12;53.10;;;23.65;;
54452;SDS011;40363;52.270;10.546;2023-02-11T05:48:40;58.33;;;24.20;;
54452;SDS011;40363;52.270;10.546;2023-02-11T05:51:09;52.65;;;21.88;;
54452;SDS011;40363;52.270;10.546;2023-02-11T05:53:39;47.42;;;21.92;;
54452;SDS011;40363;52.270;10.546;2023-02-11T05:56:05;46.10;;;20.98;;
54452;SDS011;40363;52.270;10.546;2023-02-11T05:58:32;49.33;;;20.67;;
54452;SDS011;40363;52.270;10.546;2023-02-11T06:00:59;44.97;;;21.60;;
54452;SDS011;40363;52.270;10.546;2023-02-11T06:03:26;47.22;;;20.25;;
54452;SDS011;40363;52.270;10.546;2023-02-11T06:05:53;55.33;;;20.67;;
54452;SDS011;40363;52.270;10.546;2023-02-11T06:08:22;42.83;;;23.02;;
54452;SDS011;40363;52.270;10.546;2023-02-11T06:10:49;47.08;;;21.80;;
54452;SDS011;40363;52.270;10.546;2023-02-11T06:13:16;37.88;;;20.30;;
54452;SDS011;40363;52.270;10.546;2023-02-11T06:15:43;47.20;;;21.10;;
54452;SDS011;40363;52.270;10.546;2023-02-11T06:18:10;43.17;;;18.60;;
54452;SDS011;40363;52.270;10.546;2023-02-11T06:20:37;43.33;;;20.42;;
54452;SDS011;40363;52.270;10.546;2023-02-11T06:23:04;38.38;;;18.95;;
54452;SDS011;40363;52.270;10.546;2023-02-11T06:28:00;39.15;;;18.77;;
54452;SDS011;40363;52.270;10.546;2023-02-11T06:30:27;44.10;;;18.60;;
54452;SDS011;40363;52.270;10.546;2023-02-11T06:32:53;47.20;;;20.52;;
54452;SDS011;40363;52.270;10.546;2023-02-11T06:35:20;42.97;;;19.70;;
54452;SDS011;40363;52.270;10.546;2023-02-11T06:37:46;38.33;;;18.25;;
54452;SDS011;40363;52.270;10.546;2023-02-11T06:40:13;36.53;;;18.65;;
54452;SDS011;40363;52.270;10.546;2023-02-11T06:42:42;36.20;;;17.88;;
54452;SDS011;40363;52.270;10.546;2023-02-11T06:45:08;43.42;;;19.27;;
54452;SDS011;40363;52.270;10.546;2023-02-11T06:47:37;36.33;;;19.15;;
54452;SDS011;40363;52.270;10.546;2023-02-11T06:50:05;39.53;;;19.08;;
54452;SDS011;40363;52.270;10.546;2023-02-11T06:52:33;35.38;;;17.70;;
54452;SDS011;40363;52.270;10.546;2023-02-11T06:54:59;37.70;;;17.55;;
54452;SDS011;40363;52.270;10.546;2023-02-11T06:57:26;39.45;;;19.00;;
54452;SDS011;40363;52.270;10.546;2023-02-11T06:59:54;40.45;;;18.05;;
54452;SDS011;40363;52.270;10.546;2023-02-11T07:02:21;39.90;;;18.10;;
54452;SDS011;40363;52.270;10.546;2023-02-11T07:04:47;35.72;;;18.05;;
54452;SDS011;40363;52.270;10.546;2023-02-11T07:07:14;35.78;;;18.63;;
54452;SDS011;40363;52.270;10.546;2023-02-11T07:09:41;43.95;;;18.95;;
54452;SDS011;40363;52.270;10.546;2023-02-11T07:12:08;44.35;;;18.15;;
54452;SDS011;40363;52.270;10.546;2023-02-11T07:14:35;42.05;;;18.80;;
54452;SDS011;40363;52.270;10.546;2023-02-11T07:17:03;40.08;;;19.70;;
54452;SDS011;40363;52.270;10.546;2023-02-11T07:19:30;38.05;;;18.02;;
54452;SDS011;40363;52.270;10.546;2023-02-11T07:21:56;40.70;;;19.23;;
54452;SDS011;40363;52.270;10.546;2023-02-11T07:24:23;42.92;;;19.77;;
54452;SDS011;40363;52.270;10.546;2023-02-11T07:26:50;41.72;;;18.73;;
54452;SDS011;40363;52.270;10.546;2023-02-11T07:29:16;41.75;;;19.75;;
54452;SDS011;40363;52.270;10.546;2023-02-11T07:31:43;43.38;;;19.13;;
54452;SDS011;40363;52.270;10.546;2023-02-11T07:34:11;41.03;;;19.15;;
54452;SDS011;40363;52.270;10.546;2023-02-11T07:36:37;39.25;;;19.75;;
54452;SDS011;40363;52.270;10.546;2023-02-11T07:39:04;35.75;;;18.70;;
54452;SDS011;40363;52.270;10.546;2023-02-11T07:41:30;44.08;;;19.55;;
54452;SDS011;40363;52.270;10.546;2023-02-11T07:44:00;44.78;;;20.73;;
54452;SDS011;40363;52.270;10.546;2023-02-11T07:46:27;45.15;;;20.00;;
54452;SDS011;40363;52.270;10.546;2023-02-11T07:48:54;39.08;;;18.83;;
54452;SDS011;40363;52.270;10.546;2023-02-11T07:51:23;41.72;;;18.77;;
54452;SDS011;40363;52.270;10.546;2023-02-11T07:53:51;43.75;;;20.80;;
54452;SDS011;40363;52.270;10.546;2023-02-11T07:56:19;46.65;;;19.85;;
54452;SDS011;40363;52.270;10.546;2023-02-11T07:58:46;44.80;;;20.17;;
54452;SDS011;40363;52.270;10.546;2023-02-11T08:01:14;43.22;;;20.73;;
54452;SDS011;40363;52.270;10.546;2023-02-11T08:03:48;36.47;;;18.75;;
54452;SDS011;40363;52.270;10.546;2023-02-11T08:06:17;42.58;;;21.50;;
54452;SDS011;40363;52.270;10.546;2023-02-11T08:08:47;42.17;;;20.98;;
54452;SDS011;40363;52.270;10.546;2023-02-11T08:11:14;43.55;;;20.63;;
54452;SDS011;40363;52.270;10.546;2023-02-11T08:13:43;45.25;;;21.17;;
54452;SDS011;40363;52.270;10.546;2023-02-11T08:16:16;48.10;;;21.95;;
54452;SDS011;40363;52.270;10.546;2023-02-11T08:18:44;36.83;;;20.15;;
54452;SDS011;40363;52.270;10.546;2023-02-11T08:21:10;45.13;;;21.52;;
54452;SDS011;40363;52.270;10.546;2023-02-11T08:23:37;43.65;;;21.23;;
54452;SDS011;40363;52.270;10.546;2023-02-11T08:26:07;42.38;;;22.77;;
54452;SDS011;40363;52.270;10.546;2023-02-11T08:28:36;42.50;;;20.38;;
54452;SDS011;40363;52.270;10.546;2023-02-11T08:31:04;44.70;;;20.90;;
54452;SDS011;40363;52.270;10.546;2023-02-11T08:33:32;50.08;;;22.20;;
54452;SDS011;40363;52.270;10.546;2023-02-11T08:35:58;45.60;;;20.38;;
54452;SDS011;40363;52.270;10.546;2023-02-11T08:38:25;43.22;;;21.00;;
54452;SDS011;40363;52.270;10.546;2023-02-11T08:40:52;44.17;;;21.02;;
54452;SDS011;40363;52.270;10.546;2023-02-11T08:43:20;45.92;;;20.27;;
54452;SDS011;40363;52.270;10.546;2023-02-11T08:45:47;39.88;;;20.48;;
54452;SDS011;40363;52.270;10.546;2023-02-11T08:48:14;42.50;;;21.08;;
54452;SDS011;40363;52.270;10.546;2023-02-11T08:50:40;51.80;;;21.83;;
54452;SDS011;40363;52.270;10.546;2023-02-11T08:53:07;49.20;;;19.77;;
54452;SDS011;40363;52.270;10.546;2023-02-11T08:55:33;50.30;;;21.50;;
54452;SDS011;40363;52.270;10.546;2023-02-11T08:58:00;47.38;;;20.40;;
54452;SDS011;40363;52.270;10.546;2023-02-11T09:00:28;48.38;;;21.15;;
54452;SDS011;40363;52.270;10.546;2023-02-11T09:02:55;56.42;;;21.65;;
54452;SDS011;40363;52.270;10.546;2023-02-11T09:05:21;52.22;;;22.80;;
54452;SDS011;40363;52.270;10.546;2023-02-11T09:07:48;51.90;;;23.08;;
54452;SDS011;40363;52.270;10.546;2023-02-11T09:10:15;50.05;;;22.20;;
54452;SDS011;40363;52.270;10.546;2023-02-11T09:12:41;50.92;;;20.15;;
54452;SDS011;40363;52.270;10.546;2023-02-11T09:15:08;46.45;;;20.58;;
54452;SDS011;40363;52.270;10.546;2023-02-11T09:17:36;42.65;;;21.30;;
54452;SDS011;40363;52.270;10.546;2023-02-11T09:20:03;39.58;;;19.73;;
54452;SDS011;40363;52.270;10.546;2023-02-11T09:22:30;44.38;;;22.13;;
54452;SDS011;40363;52.270;10.546;2023-02-11T09:24:56;50.10;;;24.08;;
54452;SDS011;40363;52.270;10.546;2023-02-11T09:27:23;54.20;;;22.42;;
54452;SDS011;40363;52.270;10.546;2023-02-11T09:29:50;45.00;;;20.35;;
54452;SDS011;40363;52.270;10.546;2023-02-11T09:32:16;49.05;;;20.45;;
54452;SDS011;40363;52.270;10.546;2023-02-11T09:34:44;48.38;;;22.45;;
54452;SDS011;40363;52.270;10.546;2023-02-11T09:37:11;52.10;;;23.38;;
54452;SDS011;40363;52.270;10.546;2023-02-11T09:39:37;51.53;;;22.83;;
54452;SDS011;40363;52.270;10.546;2023-02-11T09:44:56;45.53;;;21.00;;
54452;SDS011;40363;52.270;10.546;2023-02-11T09:47:26;48.95;;;22.05;;
54452;SDS011;40363;52.270;10.546;2023-02-11T09:49:57;48.58;;;22.85;;
54452;SDS011;40363;52.270;10.546;2023-02-11T09:52:29;52.22;;;20.80;;
54452;SDS011;40363;52.270;10.546;2023-02-11T09:55:03;49.17;;;22.15;;
54452;SDS011;40363;52.270;10.546;2023-02-11T09:57:36;59.15;;;22.35;;
54452;SDS011;40363;52.270;10.546;2023-02-11T10:00:11;50.95;;;22.75;;
54452;SDS011;40363;52.270;10.546;2023-02-11T10:02:46;51.10;;;23.17;;
54452;SDS011;40363;52.270;10.546;2023-02-11T10:05:31;46.80;;;21.38;;
54452;SDS011;40363;52.270;10.546;2023-02-11T10:08:07;43.47;;;21.10;;
54452;SDS011;40363;52.270;10.546;2023-02-11T10:10:43;51.88;;;20.10;;
54452;SDS011;40363;52.270;10.546;2023-02-11T10:13:24;44.83;;;21.50;;
54452;SDS011;40363;52.270;10.546;2023-02-11T10:16:03;43.95;;;20.48;;
54452;SDS011;40363;52.270;10.546;2023-02-11T10:18:45;49.38;;;20.67;;
54452;SDS011;40363;52.270;10.546;2023-02-11T10:21:27;48.58;;;22.40;;
54452;SDS011;40363;52.270;10.546;2023-02-11T10:24:02;53.38;;;23.02;;
54452;SDS011;40363;52.270;10.546;2023-02-11T10:26:35;46.22;;;22.30;;
54452;SDS011;40363;52.270;10.546;2023-02-11T10:29:04;53.85;;;23.95;;
54452;SDS011;40363;52.270;10.546;2023-02-11T10:31:43;46.20;;;22.42;;
54452;SDS011;40363;52.270;10.546;2023-02-11T10:34:13;47.10;;;20.95;;
54452;SDS011;40363;52.270;10.546;2023-02-11T10:36:42;47.92;;;20.98;;
54452;SDS011;40363;52.270;10.546;2023-02-11T10:39:11;52.95;;;20.73;;
54452;SDS011;40363;52.270;10.546;2023-02-11T10:41:40;50.47;;;20.90;;
54452;SDS011;40363;52.270;10.546;2023-02-11T10:44:11;46.47;;;20.77;;
54452;SDS011;40363;52.270;10.546;2023-02-11T10:46:47;56.90;;;22.42;;
54452;SDS011;40363;52.270;10.546;2023-02-11T10:49:31;46.00;;;21.40;;
54452;SDS011;40363;52.270;10.546;2023-02-11T10:54:58;49.97;;;21.50;;
54452;SDS011;40363;52.270;10.546;2023-02-11T10:57:27;45.40;;;21.35;;
54452;SDS011;40363;52.270;10.546;2023-02-11T10:59:58;46.10;;;20.13;;
54452;SDS011;40363;52.270;10.546;2023-02-11T11:02:28;59.42;;;22.52;;
54452;SDS011;40363;52.270;10.546;2023-02-11T11:04:58;57.15;;;23.15;;
54452;SDS011;40363;52.270;10.546;2023-02-11T11:07:28;40.08;;;19.58;;
54452;SDS011;40363;52.270;10.546;2023-02-11T11:09:57;50.35;;;20.95;;
54452;SDS011;40363;52.270;10.546;2023-02-11T11:12:30;50.95;;;20.90;;
54452;SDS011;40363;52.270;10.546;2023-02-11T11:15:00;52.50;;;21.92;;
54452;SDS011;40363;52.270;10.546;2023-02-11T11:17:29;53.55;;;20.17;;
54452;SDS011;40363;52.270;10.546;2023-02-11T11:20:17;50.63;;;21.08;;
54452;SDS011;40363;52.270;10.546;2023-02-11T11:22:47;48.65;;;21.25;;
54452;SDS011;40363;52.270;10.546;2023-02-11T11:25:21;48.03;;;20.73;;
54452;SDS011;40363;52.270;10.546;2023-02-11T11:27:49;45.08;;;21.60;;
54452;SDS011;40363;52.270;10.546;2023-02-11T11:30:18;44.28;;;19.73;;
54452;SDS011;40363;52.270;10.546;2023-02-11T11:32:45;54.47;;;22.88;;
54452;SDS011;40363;52.270;10.546;2023-02-11T11:35:23;47.55;;;21.30;;
54452;SDS011;40363;52.270;10.546;2023-02-11T11:37:54;42.00;;;20.00;;
54452;SDS011;40363;52.270;10.546;2023-02-11T11:40:24;47.50;;;21.60;;
54452;SDS011;40363;52.270;10.546;2023-02-11T11:43:05;47.25;;;21.95;;
54452;SDS011;40363;52.270;10.546;2023-02-11T11:45:51;44.58;;;18.98;;
54452;SDS011;40363;52.270;10.546;2023-02-11T11:48:21;42.53;;;18.90;;
54452;SDS011;40363;52.270;10.546;2023-02-11T11:50:51;42.28;;;19.83;;
54452;SDS011;40363;52.270;10.546;2023-02-11T11:53:23;40.90;;;19.02;;
54452;SDS011;40363;52.270;10.546;2023-02-11T11:55:58;38.42;;;16.10;;
54452;SDS011;40363;52.270;10.546;2023-02-11T11:58:29;35.17;;;17.20;;
54452;SDS011;40363;52.270;10.546;2023-02-11T12:00:58;35.63;;;16.25;;
54452;SDS011;40363;52.270;10.546;2023-02-11T12:03:42;38.38;;;17.13;;
54452;SDS011;40363;52.270;10.546;2023-02-11T12:06:40;37.22;;;16.42;;
54452;SDS011;40363;52.270;10.546;2023-02-11T12:09:21;40.05;;;17.17;;
54452;SDS011;40363;52.270;10.546;2023-02-11T12:11:58;37.15;;;16.75;;
54452;SDS011;40363;52.270;10.546;2023-02-11T12:14:36;42.92;;;16.35;;
54452;SDS011;40363;52.270;10.546;2023-02-11T12:17:11;35.13;;;15.65;;
54452;SDS011;40363;52.270;10.546;2023-02-11T12:19:57;33.58;;;14.68;;
54452;SDS011;40363;52.270;10.546;2023-02-11T12:22:40;42.05;;;17.02;;
54452;SDS011;40363;52.270;10.546;2023-02-11T12:25:25;34.55;;;15.60;;
54452;SDS011;40363;52.270;10.546;2023-02-11T12:28:06;39.90;;;16.65;;
54452;SDS011;40363;52.270;10.546;2023-02-11T12:30:47;37.25;;;16.40;;
54452;SDS011;40363;52.270;10.546;2023-02-11T12:33:24;43.42;;;15.63;;
54452;SDS011;40363;52.270;10.546;2023-02-11T12:36:06;36.00;;;16.42;;
54452;SDS011;40363;52.270;10.546;2023-02-11T12:38:50;39.27;;;17.60;;
54452;SDS011;40363;52.270;10.546;2023-02-11T12:41:35;30.15;;;15.32;;
54452;SDS011;40363;52.270;10.546;2023-02-11T12:44:33;30.40;;;14.40;;
54452;SDS011;40363;52.270;10.546;2023-02-11T12:47:08;33.33;;;14.98;;
54452;SDS011;40363;52.270;10.546;2023-02-11T12:49:56;31.10;;;14.13;;
54452;SDS011;40363;52.270;10.546;2023-02-11T12:52:41;32.45;;;14.13;;
54452;SDS011;40363;52.270;10.546;2023-02-11T12:55:18;29.15;;;13.68;;
54452;SDS011;40363;52.270;10.546;2023-02-11T12:57:50;36.78;;;14.73;;
54452;SDS011;40363;52.270;10.546;2023-02-11T13:00:23;29.92;;;13.75;;
54452;SDS011;40363;52.270;10.546;2023-02-11T13:02:58;26.23;;;13.95;;
54452;SDS011;40363;52.270;10.546;2023-02-11T13:05:32;31.17;;;13.70;;
54452;SDS011;40363;52.270;10.546;2023-02-11T13:08:04;26.25;;;13.18;;
54452;SDS011;40363;52.270;10.546;2023-02-11T13:10:36;31.33;;;13.63;;
54452;SDS011;40363;52.270;10.546;2023-02-11T13:13:11;32.22;;;13.82;;
54452;SDS011;40363;52.270;10.546;2023-02-11T13:15:57;29.15;;;14.20;;
54452;SDS011;40363;52.270;10.546;2023-02-11T13:18:34;28.48;;;12.95;;
54452;SDS011;40363;52.270;10.546;2023-02-11T13:21:18;27.65;;;14.32;;
54452;SDS011;40363;52.270;10.546;2023-02-11T13:23:57;29.65;;;13.82;;
54452;SDS011;40363;52.270;10.546;2023-02-11T13:29:08;26.15;;;14.38;;
54452;SDS011;40363;52.270;10.546;2023-02-11T13:31:51;26.35;;;12.52;;
54452;SDS011;40363;52.270;10.546;2023-02-11T13:34:22;31.97;;;14.73;;
54452;SDS011;40363;52.270;10.546;2023-02-11T13:36:54;24.80;;;12.90;;
54452;SDS011;40363;52.270;10.546;2023-02-11T13:39:22;29.33;;;13.68;;
54452;SDS011;40363;52.270;10.546;2023-02-11T13:41:49;27.02;;;12.80;;
54452;SDS011;40363;52.270;10.546;2023-02-11T13:44:28;24.88;;;11.55;;
54452;SDS011;40363;52.270;10.546;2023-02-11T13:46:58;26.92;;;13.32;;
54452;SDS011;40363;52.270;10.546;2023-02-11T13:49:32;25.30;;;14.27;;
54452;SDS011;40363;52.270;10.546;2023-02-11T13:52:02;21.63;;;11.80;;
54452;SDS011;40363;52.270;10.546;2023-02-11T13:54:32;22.80;;;13.55;;
54452;SDS011;40363;52.270;10.546;2023-02-11T13:57:20;24.52;;;12.50;;
54452;SDS011;40363;52.270;10.546;2023-02-11T13:59:52;21.80;;;11.23;;
54452;SDS011;40363;52.270;10.546;2023-02-11T14:02:26;26.50;;;12.48;;
54452;SDS011;40363;52.270;10.546;2023-02-11T14:05:23;29.05;;;12.75;;
54452;SDS011;40363;52.270;10.546;2023-02-11T14:08:12;25.83;;;11.60;;
54452;SDS011;40363;52.270;10.546;2023-02-11T14:11:04;25.90;;;12.55;;
54452;SDS011;40363;52.270;10.546;2023-02-11T14:14:02;26.38;;;13.38;;
54452;SDS011;40363;52.270;10.546;2023-02-11T14:19:48;23.25;;;13.00;;
54452;SDS011;40363;52.270;10.546;2023-02-11T14:22:16;27.02;;;12.40;;
54452;SDS011;40363;52.270;10.546;2023-02-11T14:24:49;27.20;;;12.05;;
54452;SDS011;40363;52.270;10.546;2023-02-11T14:27:20;25.00;;;11.60;;
54452;SDS011;40363;52.270;10.546;2023-02-11T14:32:56;24.27;;;13.23;;
54452;SDS011;40363;52.270;10.546;2023-02-11T14:35:42;26.80;;;13.27;;
54452;SDS011;40363;52.270;10.546;2023-02-11T14:38:20;26.95;;;13.48;;
54452;SDS011;40363;52.270;10.546;2023-02-11T14:40:53;27.67;;;13.15;;
54452;SDS011;40363;52.270;10.546;2023-02-11T14:43:28;31.70;;;13.73;;
54452;SDS011;40363;52.270;10.546;2023-02-11T14:46:01;32.60;;;13.23;;
54452;SDS011;40363;52.270;10.546;2023-02-11T14:48:29;26.77;;;14.02;;
54452;SDS011;40363;52.270;10.546;2023-02-11T14:51:01;28.67;;;14.65;;
54452;SDS011;40363;52.270;10.546;2023-02-11T14:53:31;30.63;;;14.80;;